createdAt,value
2023-02-12T00:01:24.110Z,46.60
2023-02-12T00:03:52.429Z,48.10
2023-02-12T00:06:20.677Z,45.90
2023-02-12T00:08:54.303Z,47.50
2023-02-12T00:11:28.591Z,45.00
2023-02-12T00:13:58.327Z,46.40
2023-02-12T00:16:28.977Z,45.30
2023-02-12T00:18:58.737Z,46.70
2023-02-12T00:21:29.086Z,46.40
2023-02-12T00:23:57.880Z,47.60
2023-02-12T00:26:25.968Z,45.00
2023-02-12T00:28:55.063Z,45.40
2023-02-12T00:31:26.763Z,46.90
2023-02-12T00:33:59.535Z,45.20
2023-02-12T00:36:30.549Z,45.70
2023-02-12T00:39:00.243Z,44.40
2023-02-12T00:41:28.397Z,46.00
2023-02-12T00:43:57.025Z,44.20
2023-02-12T00:46:25.131Z,43.60
2023-02-12T00:48:53.378Z,44.30
2023-02-12T00:51:21.962Z,44.80
2023-02-12T00:53:52.599Z,45.40
2023-02-12T00:56:20.575Z,43.70
2023-02-12T00:58:51.020Z,42.60
2023-02-12T01:01:19.364Z,44.30
2023-02-12T01:03:47.679Z,42.20
2023-02-12T01:06:15.959Z,42.90
2023-02-12T01:08:44.131Z,42.50
2023-02-12T01:11:13.867Z,42.40
2023-02-12T01:13:42.131Z,41.40
2023-02-12T01:16:19.121Z,43.50
2023-02-12T01:18:48.108Z,42.70
2023-02-12T01:21:22.634Z,43.10
2023-02-12T01:23:51.452Z,41.70
2023-02-12T01:26:21.862Z,42.80
2023-02-12T01:28:55.261Z,41.80
2023-02-12T01:31:26.701Z,41.70
2023-02-12T01:33:57.028Z,42.20
2023-02-12T01:36:26.245Z,42.00
2023-02-12T01:38:55.543Z,42.60
2023-02-12T01:41:27.307Z,42.70
2023-02-12T01:44:19.417Z,42.10
2023-02-12T01:46:50.770Z,42.30
2023-02-12T01:49:25.928Z,41.90
2023-02-12T01:52:05.044Z,41.20
2023-02-12T01:54:35.370Z,42.50
2023-02-12T01:57:05.830Z,41.00
2023-02-12T01:59:36.693Z,41.30
2023-02-12T02:02:05.882Z,41.60
2023-02-12T02:04:50.796Z,43.70
2023-02-12T02:07:19.083Z,41.90
2023-02-12T02:09:47.887Z,41.90
2023-02-12T02:12:34.799Z,41.50
2023-02-12T02:15:04.792Z,41.90
2023-02-12T02:17:56.411Z,42.70
2023-02-12T02:20:46.388Z,43.40
2023-02-12T02:23:49.971Z,44.40
2023-02-12T02:26:32.979Z,42.80
2023-02-12T02:29:19.691Z,42.90
2023-02-12T02:31:55.103Z,42.50
2023-02-12T02:34:34.670Z,40.70
2023-02-12T02:37:37.444Z,44.30
2023-02-12T02:40:19.942Z,43.40
2023-02-12T02:42:52.616Z,43.30
2023-02-12T02:45:35.642Z,44.00
2023-02-12T02:48:06.479Z,42.90
2023-02-12T02:50:38.752Z,44.50
2023-02-12T02:53:19.620Z,44.30
2023-02-12T02:55:54.802Z,44.00
2023-02-12T02:58:28.839Z,45.00
2023-02-12T03:01:08.530Z,42.60
2023-02-12T03:04:12.914Z,45.30
2023-02-12T03:06:55.718Z,42.40
2023-02-12T03:09:39.051Z,42.60
2023-02-12T03:12:37.736Z,43.70
2023-02-12T03:15:15.236Z,41.70
2023-02-12T03:17:49.514Z,42.40
2023-02-12T03:20:24.577Z,43.50
2023-02-12T03:22:58.177Z,41.30
2023-02-12T03:25:34.027Z,41.40
2023-02-12T03:30:42.981Z,38.20
2023-02-12T03:33:32.437Z,39.70
2023-02-12T03:36:07.066Z,40.60
2023-02-12T03:38:47.211Z,43.10
2023-02-12T03:41:28.083Z,39.50
2023-02-12T03:44:05.992Z,40.20
2023-02-12T03:47:07.316Z,40.50
2023-02-12T03:49:47.370Z,38.80
2023-02-12T03:52:15.434Z,39.30
2023-02-12T03:54:43.497Z,39.70
2023-02-12T03:57:16.274Z,38.90
2023-02-12T03:59:45.096Z,39.70
2023-02-12T04:02:15.295Z,41.00
2023-02-12T04:04:44.972Z,38.50
2023-02-12T04:07:13.918Z,40.20
2023-02-12T04:09:41.993Z,40.00
2023-02-12T04:12:28.595Z,41.20
2023-02-12T04:15:08.782Z,38.60
2023-02-12T04:18:20.734Z,37.60
2023-02-12T04:21:13.873Z,39.00
2023-02-12T04:23:59.761Z,36.70
2023-02-12T04:26:52.516Z,38.40
2023-02-12T04:29:37.258Z,36.90
2023-02-12T04:32:12.828Z,36.90
2023-02-12T04:37:35.646Z,34.50
2023-02-12T04:40:08.050Z,36.60
2023-02-12T04:42:47.568Z,37.00
2023-02-12T04:45:21.177Z,37.60
2023-02-12T04:47:49.457Z,37.80
2023-02-12T04:50:17.978Z,38.40
2023-02-12T04:52:46.540Z,37.10
2023-02-12T04:55:15.123Z,36.40
2023-02-12T04:57:43.401Z,36.90
2023-02-12T05:00:14.263Z,37.60
2023-02-12T05:02:42.330Z,38.00
2023-02-12T05:05:10.570Z,38.60
2023-02-12T05:07:38.876Z,37.40
2023-02-12T05:10:07.911Z,36.00
2023-02-12T05:12:35.927Z,38.00
2023-02-12T05:15:04.435Z,37.40
2023-02-12T05:17:32.514Z,36.90
2023-02-12T05:20:00.694Z,36.40
2023-02-12T05:22:28.970Z,37.70
2023-02-12T05:24:57.253Z,37.70
2023-02-12T05:27:25.343Z,37.70
2023-02-12T05:29:53.529Z,36.60
2023-02-12T05:32:21.582Z,35.30
2023-02-12T05:34:49.862Z,38.80
2023-02-12T05:37:17.948Z,36.70
2023-02-12T05:39:46.016Z,35.20
2023-02-12T05:42:14.193Z,36.50
2023-02-12T05:44:42.273Z,39.20
2023-02-12T05:47:11.063Z,37.20
2023-02-12T05:49:39.147Z,37.20
2023-02-12T05:52:07.208Z,35.60
2023-02-12T05:54:35.294Z,36.00
2023-02-12T05:57:03.295Z,35.70
2023-02-12T05:59:31.544Z,36.30
2023-02-12T06:01:59.560Z,36.10
2023-02-12T06:04:29.252Z,36.50
2023-02-12T06:06:57.510Z,36.10
2023-02-12T06:09:25.635Z,36.50
2023-02-12T06:11:53.864Z,35.40
2023-02-12T06:14:22.052Z,34.50
2023-02-12T06:16:51.977Z,35.00
2023-02-12T06:19:20.562Z,35.80
2023-02-12T06:21:48.724Z,37.20
2023-02-12T06:24:17.442Z,35.70
2023-02-12T06:26:46.225Z,36.70
2023-02-12T06:29:14.603Z,34.90
2023-02-12T06:31:43.245Z,36.40
2023-02-12T06:34:13.721Z,35.40
2023-02-12T06:36:44.766Z,37.10
2023-02-12T06:39:15.611Z,38.90
2023-02-12T06:41:44.295Z,37.20
2023-02-12T06:44:13.198Z,38.30
2023-02-12T06:46:41.188Z,39.20
2023-02-12T06:49:12.628Z,39.30
2023-02-12T06:51:41.639Z,38.90
2023-02-12T06:54:15.089Z,38.80
2023-02-12T06:56:43.396Z,40.90
2023-02-12T06:59:15.470Z,40.20
2023-02-12T07:01:44.060Z,39.90
2023-02-12T07:04:12.614Z,40.30
2023-02-12T07:06:41.019Z,41.70
2023-02-12T07:09:09.032Z,41.50
2023-02-12T07:11:38.719Z,39.80
2023-02-12T07:14:08.020Z,43.20
2023-02-12T07:16:36.113Z,42.40
2023-02-12T07:19:04.289Z,42.50
2023-02-12T07:21:32.346Z,45.50
2023-02-12T07:24:00.461Z,45.40
2023-02-12T07:26:29.004Z,45.60
2023-02-12T07:28:58.841Z,47.80
2023-02-12T07:31:27.134Z,45.50
2023-02-12T07:33:57.044Z,46.50
2023-02-12T07:36:27.529Z,49.40
2023-02-12T07:38:57.070Z,46.60
2023-02-12T07:41:28.737Z,47.10
2023-02-12T07:43:59.349Z,44.70
2023-02-12T07:46:30.819Z,46.40
2023-02-12T07:49:01.194Z,43.80
2023-02-12T07:51:29.412Z,45.40
2023-02-12T07:53:57.501Z,45.50
2023-02-12T07:56:32.608Z,46.30
2023-02-12T07:59:03.148Z,46.20
2023-02-12T08:01:37.023Z,46.90
2023-02-12T08:04:08.593Z,46.10
2023-02-12T08:06:40.503Z,45.70
2023-02-12T08:09:10.850Z,44.90
2023-02-12T08:11:41.949Z,44.30
2023-02-12T08:14:15.476Z,43.40
2023-02-12T08:16:45.296Z,45.10
2023-02-12T08:19:20.212Z,46.80
2023-02-12T08:21:53.727Z,46.80
2023-02-12T08:24:22.608Z,47.10
2023-02-12T08:26:51.608Z,49.10
2023-02-12T08:29:22.909Z,48.10
2023-02-12T08:31:56.614Z,51.30
2023-02-12T08:34:27.639Z,51.30
2023-02-12T08:36:56.432Z,51.80
2023-02-12T08:39:26.634Z,50.50
2023-02-12T08:41:56.139Z,44.30
2023-02-12T08:44:27.084Z,43.20
2023-02-12T08:46:58.091Z,46.10
2023-02-12T08:49:29.179Z,45.30
2023-02-12T08:52:01.853Z,45.40
2023-02-12T08:54:31.652Z,47.20
2023-02-12T08:57:02.606Z,46.00
2023-02-12T08:59:31.304Z,49.30
2023-02-12T09:02:00.773Z,50.70
2023-02-12T09:04:30.038Z,52.20
2023-02-12T09:06:58.276Z,48.40
2023-02-12T09:09:26.367Z,47.80
2023-02-12T09:11:54.632Z,50.20
2023-02-12T09:14:25.570Z,49.80
2023-02-12T09:16:54.818Z,49.10
2023-02-12T09:19:23.445Z,47.60
2023-02-12T09:21:55.562Z,48.20
2023-02-12T09:24:28.126Z,49.60
2023-02-12T09:26:57.614Z,48.60
2023-02-12T09:29:25.630Z,46.90
2023-02-12T09:31:53.855Z,47.40
2023-02-12T09:34:22.062Z,46.90
2023-02-12T09:36:50.229Z,46.70
2023-02-12T09:39:18.322Z,48.40
2023-02-12T09:42:05.919Z,50.00
2023-02-12T09:45:02.782Z,47.40
2023-02-12T09:47:39.028Z,46.40
2023-02-12T09:50:19.274Z,46.30
2023-02-12T09:52:48.689Z,48.10
2023-02-12T09:55:19.098Z,47.50
2023-02-12T09:57:47.612Z,46.40
2023-02-12T10:00:22.037Z,45.80
2023-02-12T10:02:53.075Z,44.40
2023-02-12T10:05:35.217Z,44.90
2023-02-12T10:08:15.645Z,44.50
2023-02-12T10:10:53.448Z,42.80
2023-02-12T10:14:01.462Z,42.90
2023-02-12T10:16:47.807Z,42.30
2023-02-12T10:22:13.647Z,39.30
2023-02-12T10:25:19.176Z,41.20
2023-02-12T10:27:51.360Z,41.20
2023-02-12T10:30:25.664Z,41.20
2023-02-12T10:33:04.555Z,42.10
2023-02-12T10:35:34.798Z,40.30
2023-02-12T10:38:14.957Z,39.50
2023-02-12T10:40:45.380Z,42.00
2023-02-12T10:43:14.204Z,40.70
2023-02-12T10:45:44.638Z,40.90
2023-02-12T10:48:20.757Z,39.50
2023-02-12T10:51:04.703Z,38.00
2023-02-12T10:53:36.152Z,38.10
2023-02-12T10:56:09.033Z,37.40
2023-02-12T10:58:39.360Z,36.70
2023-02-12T11:01:36.149Z,35.70
2023-02-12T11:04:26.480Z,35.60
2023-02-12T11:07:04.385Z,34.70
2023-02-12T11:09:40.868Z,33.70
2023-02-12T11:12:17.844Z,32.10
2023-02-12T11:14:58.416Z,33.40
2023-02-12T11:17:38.653Z,31.40
2023-02-12T11:20:16.234Z,31.80
2023-02-12T11:23:02.624Z,32.10
2023-02-12T11:25:36.117Z,31.90
2023-02-12T11:28:18.036Z,31.10
2023-02-12T11:30:57.099Z,30.40
2023-02-12T11:33:29.414Z,29.60
2023-02-12T11:36:06.771Z,30.90
2023-02-12T11:38:39.248Z,28.70
2023-02-12T11:41:24.763Z,29.70
2023-02-12T11:43:53.549Z,29.20
2023-02-12T11:46:25.736Z,28.60
2023-02-12T11:48:57.293Z,30.20
2023-02-12T11:51:29.462Z,29.80
2023-02-12T11:54:03.794Z,27.80
2023-02-12T11:56:48.320Z,27.60
2023-02-12T11:59:30.234Z,27.40
2023-02-12T12:02:04.542Z,26.00
2023-02-12T12:04:35.895Z,27.60
2023-02-12T12:07:16.743Z,25.80
2023-02-12T12:09:56.483Z,26.60
2023-02-12T12:12:37.762Z,24.50
2023-02-12T12:15:29.886Z,24.80
2023-02-12T12:18:43.798Z,26.10
2023-02-12T12:21:16.210Z,25.00
2023-02-12T12:23:59.818Z,25.00
2023-02-12T12:26:34.528Z,24.10
2023-02-12T12:29:16.952Z,23.10
2023-02-12T12:31:48.337Z,24.90
2023-02-12T12:34:23.890Z,25.20
2023-02-12T12:37:17.712Z,24.50
2023-02-12T12:39:55.198Z,24.90
2023-02-12T12:42:45.687Z,23.10
2023-02-12T12:45:32.971Z,24.70
2023-02-12T12:48:24.305Z,24.40
2023-02-12T12:51:10.402Z,23.90
2023-02-12T12:53:54.972Z,22.40
2023-02-12T12:56:54.845Z,23.90
2023-02-12T12:59:51.173Z,24.70
2023-02-12T13:02:28.456Z,24.10
2023-02-12T13:05:21.689Z,22.80
2023-02-12T13:08:01.786Z,24.60
2023-02-12T13:10:39.147Z,26.20
2023-02-12T13:13:31.990Z,26.20
2023-02-12T13:16:15.224Z,24.60
2023-02-12T13:18:59.217Z,25.10
2023-02-12T13:22:08.870Z,23.70
2023-02-12T13:24:58.335Z,24.00
2023-02-12T13:27:37.002Z,24.80
2023-02-12T13:30:18.134Z,25.30
2023-02-12T13:32:59.413Z,24.50
2023-02-12T13:35:30.349Z,25.80
2023-02-12T13:38:00.576Z,25.30
2023-02-12T13:40:31.727Z,25.80
2023-02-12T13:43:32.138Z,24.80
2023-02-12T13:46:25.396Z,25.20
2023-02-12T13:49:21.699Z,25.90
2023-02-12T13:52:17.408Z,23.90
2023-02-12T13:54:49.167Z,24.80
2023-02-12T13:57:19.902Z,26.40
2023-02-12T13:59:50.564Z,26.00
2023-02-12T14:02:33.817Z,25.90
2023-02-12T14:05:14.669Z,25.50
2023-02-12T14:07:46.750Z,25.20
2023-02-12T14:10:22.812Z,25.30
2023-02-12T14:12:59.534Z,25.00
2023-02-12T14:15:41.448Z,24.90
2023-02-12T14:18:32.011Z,24.40
2023-02-12T14:21:28.745Z,25.40
2023-02-12T14:24:35.625Z,24.30
2023-02-12T14:27:29.981Z,24.30
2023-02-12T14:30:12.076Z,23.90
2023-02-12T14:32:46.299Z,24.70
2023-02-12T14:35:45.885Z,22.90
2023-02-12T14:38:16.738Z,24.10
2023-02-12T14:40:52.671Z,24.10
2023-02-12T14:44:02.105Z,22.90
2023-02-12T14:46:43.744Z,22.90
2023-02-12T14:49:25.160Z,24.60
2023-02-12T14:52:14.833Z,23.70
2023-02-12T14:54:50.064Z,24.00
2023-02-12T14:57:32.288Z,22.70
2023-02-12T15:00:25.702Z,23.40
2023-02-12T15:03:13.965Z,22.60
2023-02-12T15:06:07.619Z,23.00
2023-02-12T15:08:45.417Z,22.40
2023-02-12T15:11:21.590Z,21.30
2023-02-12T15:14:02.873Z,23.60
2023-02-12T15:16:38.091Z,22.20
2023-02-12T15:19:16.718Z,20.90
2023-02-12T15:21:46.312Z,21.30
2023-02-12T15:24:23.479Z,21.80
2023-02-12T15:26:58.965Z,22.90
2023-02-12T15:29:45.454Z,23.40
2023-02-12T15:32:23.357Z,22.50
2023-02-12T15:34:52.550Z,21.60
2023-02-12T15:37:27.330Z,21.90
2023-02-12T15:40:00.154Z,20.80
2023-02-12T15:42:28.250Z,21.90
2023-02-12T15:45:17.928Z,21.80
2023-02-12T15:47:57.234Z,21.90
2023-02-12T15:50:26.341Z,22.40
2023-02-12T15:52:56.259Z,22.00
2023-02-12T15:55:28.501Z,22.00
2023-02-12T15:57:59.793Z,21.50
2023-02-12T16:00:33.713Z,21.30
2023-02-12T16:03:01.673Z,21.30
2023-02-12T16:05:32.597Z,22.20
2023-02-12T16:08:02.543Z,22.50
2023-02-12T16:10:31.223Z,22.30
2023-02-12T16:13:00.627Z,22.70
2023-02-12T16:15:32.486Z,22.50
2023-02-12T16:18:04.256Z,22.80
2023-02-12T16:20:32.553Z,24.20
2023-02-12T16:23:06.443Z,26.00
2023-02-12T16:25:35.425Z,36.50
2023-02-12T16:28:05.218Z,44.90
2023-02-12T16:30:38.840Z,52.30
2023-02-12T16:33:45.010Z,63.70
2023-02-12T16:36:30.557Z,79.10
2023-02-12T16:39:08.479Z,99.10
2023-02-12T16:41:55.698Z,110.40
2023-02-12T16:44:31.108Z,116.40
2023-02-12T16:47:01.654Z,123.40
2023-02-12T16:49:29.948Z,134.00
2023-02-12T16:52:27.168Z,143.00
2023-02-12T16:54:55.095Z,149.40
2023-02-12T16:57:23.132Z,159.90
2023-02-12T16:59:51.237Z,157.80
2023-02-12T17:02:19.895Z,153.70
2023-02-12T17:04:47.979Z,152.60
2023-02-12T17:07:20.344Z,149.00
2023-02-12T17:09:49.245Z,147.50
2023-02-12T17:12:17.762Z,144.30
2023-02-12T17:14:46.219Z,148.70
2023-02-12T17:17:14.607Z,140.80
2023-02-12T17:19:42.781Z,135.40
2023-02-12T17:22:26.402Z,133.20
2023-02-12T17:24:54.901Z,130.20
2023-02-12T17:27:23.186Z,125.00
2023-02-12T17:29:51.383Z,119.50
2023-02-12T17:32:19.595Z,121.20
2023-02-12T17:34:48.943Z,120.00
2023-02-12T17:37:18.430Z,113.10
2023-02-12T17:39:46.842Z,110.40
2023-02-12T17:42:15.021Z,100.70
2023-02-12T17:44:43.200Z,98.20
2023-02-12T17:47:11.377Z,95.50
2023-02-12T17:49:40.167Z,92.60
2023-02-12T17:52:08.664Z,90.60
2023-02-12T17:54:37.343Z,89.00
2023-02-12T17:57:05.427Z,85.30
2023-02-12T17:59:33.490Z,85.00
2023-02-12T18:02:01.979Z,82.90
2023-02-12T18:04:35.871Z,77.80
2023-02-12T18:07:05.298Z,77.00
2023-02-12T18:09:33.375Z,74.00
2023-02-12T18:12:01.563Z,71.40
2023-02-12T18:14:30.141Z,74.90
2023-02-12T18:16:58.959Z,70.20
2023-02-12T18:19:29.264Z,68.60
2023-02-12T18:21:57.433Z,66.80
2023-02-12T18:24:25.518Z,64.50
2023-02-12T18:26:53.595Z,63.70
2023-02-12T18:29:21.663Z,63.70
2023-02-12T18:31:49.765Z,60.40
2023-02-12T18:34:18.120Z,59.80
2023-02-12T18:36:46.374Z,56.00
2023-02-12T18:39:14.489Z,55.40
2023-02-12T18:41:43.477Z,50.40
2023-02-12T18:44:11.565Z,50.00
2023-02-12T18:46:40.348Z,50.90
2023-02-12T18:49:10.365Z,51.00
2023-02-12T18:51:41.216Z,48.40
2023-02-12T18:54:12.844Z,48.60
2023-02-12T18:56:43.854Z,48.50
2023-02-12T18:59:14.128Z,48.50
2023-02-12T19:01:43.485Z,45.10
2023-02-12T19:04:16.767Z,43.60
2023-02-12T19:06:48.811Z,41.90
2023-02-12T19:09:20.511Z,43.20
2023-02-12T19:11:50.186Z,41.00
2023-02-12T19:14:21.115Z,41.70
2023-02-12T19:16:50.422Z,38.50
2023-02-12T19:19:21.196Z,39.90
2023-02-12T19:21:49.946Z,40.90
2023-02-12T19:24:18.640Z,39.30
2023-02-12T19:26:50.602Z,38.40
2023-02-12T19:29:19.093Z,38.30
2023-02-12T19:31:47.735Z,38.60
2023-02-12T19:34:19.851Z,38.70
2023-02-12T19:36:49.957Z,37.60
2023-02-12T19:39:21.729Z,35.20
2023-02-12T19:41:50.528Z,36.00
2023-02-12T19:44:24.595Z,35.90
2023-02-12T19:46:53.536Z,34.80
2023-02-12T19:49:24.783Z,35.10
2023-02-12T19:51:53.577Z,34.80
2023-02-12T19:54:23.328Z,35.00
2023-02-12T19:56:53.002Z,35.60
2023-02-12T19:59:23.026Z,34.90
2023-02-12T20:01:51.732Z,33.80
2023-02-12T20:04:23.821Z,35.50
2023-02-12T20:06:52.646Z,34.90
2023-02-12T20:09:22.827Z,33.00
2023-02-12T20:11:51.808Z,32.60
2023-02-12T20:14:22.740Z,34.50
2023-02-12T20:16:55.225Z,33.10
2023-02-12T20:19:26.495Z,34.20
2023-02-12T20:21:56.849Z,35.10
2023-02-12T20:24:31.027Z,34.10
2023-02-12T20:27:00.836Z,34.90
2023-02-12T20:29:33.000Z,34.60
2023-02-12T20:32:01.324Z,34.60
2023-02-12T20:34:30.417Z,33.90
2023-02-12T20:36:59.677Z,33.60
2023-02-12T20:39:27.691Z,35.10
2023-02-12T20:41:56.023Z,32.40
2023-02-12T20:44:24.418Z,34.50
2023-02-12T20:46:56.496Z,34.30
2023-02-12T20:49:26.210Z,34.20
2023-02-12T20:51:54.901Z,36.20
2023-02-12T20:54:23.070Z,37.30
2023-02-12T20:56:51.354Z,37.30
2023-02-12T20:59:20.505Z,34.40
2023-02-12T21:01:49.288Z,36.60
2023-02-12T21:04:19.717Z,37.40
2023-02-12T21:06:48.714Z,36.20
2023-02-12T21:09:20.736Z,36.40
2023-02-12T21:11:49.337Z,35.00
2023-02-12T21:14:22.215Z,37.10
2023-02-12T21:16:53.854Z,36.40
2023-02-12T21:19:22.669Z,37.20
2023-02-12T21:21:51.055Z,36.90
2023-02-12T21:24:24.330Z,36.90
2023-02-12T21:26:54.146Z,35.20
2023-02-12T21:29:23.866Z,36.30
2023-02-12T21:31:52.267Z,35.70
2023-02-12T21:34:22.743Z,38.00
2023-02-12T21:36:54.254Z,36.10
2023-02-12T21:39:27.539Z,36.20
2023-02-12T21:42:00.229Z,35.10
2023-02-12T21:44:29.845Z,34.80
2023-02-12T21:46:59.125Z,37.40
2023-02-12T21:49:28.476Z,34.60
2023-02-12T21:52:02.262Z,36.40
2023-02-12T21:54:30.973Z,36.30
2023-02-12T21:57:00.225Z,35.00
2023-02-12T21:59:31.499Z,35.90
2023-02-12T22:02:01.822Z,35.90
2023-02-12T22:04:29.954Z,34.30
2023-02-12T22:06:59.807Z,35.00
2023-02-12T22:09:27.964Z,35.00
2023-02-12T22:11:56.041Z,33.50
2023-02-12T22:14:24.013Z,33.40
2023-02-12T22:16:52.302Z,33.20
2023-02-12T22:19:20.331Z,32.00
2023-02-12T22:21:51.851Z,31.10
2023-02-12T22:24:20.620Z,32.20
2023-02-12T22:26:48.996Z,31.40
2023-02-12T22:29:17.489Z,31.40
2023-02-12T22:31:47.233Z,32.30
2023-02-12T22:34:18.918Z,32.00
2023-02-12T22:36:47.858Z,30.90
2023-02-12T22:39:17.746Z,32.40
2023-02-12T22:41:46.441Z,31.80
2023-02-12T22:44:16.442Z,32.80
2023-02-12T22:46:45.142Z,31.90
2023-02-12T22:49:13.977Z,32.30
2023-02-12T22:51:42.246Z,31.20
2023-02-12T22:54:15.918Z,30.80
2023-02-12T22:56:45.472Z,32.40
2023-02-12T22:59:13.734Z,29.20
2023-02-12T23:01:42.637Z,29.30
2023-02-12T23:04:18.826Z,30.80
2023-02-12T23:06:47.391Z,30.10
2023-02-12T23:09:18.946Z,30.30
2023-02-12T23:11:48.445Z,29.30
2023-02-12T23:14:17.060Z,31.10
2023-02-12T23:16:46.224Z,29.90
2023-02-12T23:19:15.131Z,29.30
2023-02-12T23:21:43.932Z,29.60
2023-02-12T23:24:14.234Z,30.00
2023-02-12T23:26:42.549Z,30.30
2023-02-12T23:29:11.053Z,30.00
2023-02-12T23:31:39.350Z,29.00
2023-02-12T23:34:07.604Z,29.00
2023-02-12T23:36:35.982Z,30.50
2023-02-12T23:39:06.213Z,28.90
2023-02-12T23:41:34.763Z,30.70
2023-02-12T23:44:03.094Z,28.40
2023-02-12T23:46:32.085Z,28.20
2023-02-12T23:49:00.055Z,26.80
2023-02-12T23:51:28.132Z,27.40
2023-02-12T23:53:56.520Z,28.50
2023-02-12T23:56:25.000Z,26.50
2023-02-12T23:58:55.762Z,26.70
